sensor_id;sensor_type;location;lat;lon;timestamp;P1;durP1;ratioP1;P2;durP2;ratioP2
69053;SDS011;56125;52.242;4.756;2022-09-23T00:02:47;3.90;;;2.95;;
69053;SDS011;56125;52.242;4.756;2022-09-23T00:07:48;3.20;;;2.37;;
69053;SDS011;56125;52.242;4.756;2022-09-23T00:12:49;3.40;;;2.30;;
69053;SDS011;56125;52.242;4.756;2022-09-23T00:17:50;3.87;;;2.57;;
69053;SDS011;56125;52.242;4.756;2022-09-23T00:22:52;3.67;;;2.20;;
69053;SDS011;56125;52.242;4.756;2022-09-23T00:27:53;4.30;;;2.40;;
69053;SDS011;56125;52.242;4.756;2022-09-23T00:32:54;3.03;;;2.72;;
69053;SDS011;56125;52.242;4.756;2022-09-23T00:37:56;3.33;;;2.27;;
69053;SDS011;56125;52.242;4.756;2022-09-23T00:42:57;3.50;;;2.83;;
69053;SDS011;56125;52.242;4.756;2022-09-23T00:47:58;4.13;;;2.60;;
69053;SDS011;56125;52.242;4.756;2022-09-23T00:53:04;4.25;;;2.60;;
69053;SDS011;56125;52.242;4.756;2022-09-23T00:58:08;3.73;;;2.50;;
69053;SDS011;56125;52.242;4.756;2022-09-23T01:03:12;4.95;;;2.53;;
69053;SDS011;56125;52.242;4.756;2022-09-23T01:08:13;3.20;;;2.30;;
69053;SDS011;56125;52.242;4.756;2022-09-23T01:13:21;3.35;;;2.60;;
69053;SDS011;56125;52.242;4.756;2022-09-23T01:18:44;3.13;;;2.50;;
69053;SDS011;56125;52.242;4.756;2022-09-23T01:24:05;3.53;;;2.53;;
69053;SDS011;56125;52.242;4.756;2022-09-23T01:50:27;2.97;;;2.30;;
69053;SDS011;56125;52.242;4.756;2022-09-23T01:55:52;2.40;;;2.17;;
69053;SDS011;56125;52.242;4.756;2022-09-23T02:00:59;3.20;;;2.50;;
69053;SDS011;56125;52.242;4.756;2022-09-23T02:06:09;3.58;;;2.50;;
69053;SDS011;56125;52.242;4.756;2022-09-23T02:11:14;3.57;;;2.57;;
69053;SDS011;56125;52.242;4.756;2022-09-23T02:16:20;3.22;;;2.45;;
69053;SDS011;56125;52.242;4.756;2022-09-23T02:21:26;5.20;;;2.67;;
69053;SDS011;56125;52.242;4.756;2022-09-23T02:26:34;4.53;;;2.60;;
69053;SDS011;56125;52.242;4.756;2022-09-23T02:31:43;2.70;;;2.50;;
69053;SDS011;56125;52.242;4.756;2022-09-23T02:37:31;4.03;;;2.50;;
69053;SDS011;56125;52.242;4.756;2022-09-23T02:42:44;4.73;;;2.27;;
69053;SDS011;56125;52.242;4.756;2022-09-23T02:48:00;6.00;;;2.80;;
69053;SDS011;56125;52.242;4.756;2022-09-23T02:53:05;3.50;;;2.87;;
69053;SDS011;56125;52.242;4.756;2022-09-23T02:58:07;3.60;;;2.70;;
69053;SDS011;56125;52.242;4.756;2022-09-23T03:08:40;3.53;;;2.40;;
69053;SDS011;56125;52.242;4.756;2022-09-23T03:19:29;3.55;;;2.90;;
69053;SDS011;56125;52.242;4.756;2022-09-23T03:24:35;5.33;;;2.27;;
69053;SDS011;56125;52.242;4.756;2022-09-23T03:29:40;4.03;;;2.63;;
69053;SDS011;56125;52.242;4.756;2022-09-23T03:34:45;4.37;;;2.37;;
69053;SDS011;56125;52.242;4.756;2022-09-23T03:39:50;3.75;;;2.55;;
69053;SDS011;56125;52.242;4.756;2022-09-23T03:45:20;3.10;;;2.80;;
69053;SDS011;56125;52.242;4.756;2022-09-23T03:50:27;3.97;;;2.40;;
69053;SDS011;56125;52.242;4.756;2022-09-23T03:55:28;3.37;;;2.77;;
69053;SDS011;56125;52.242;4.756;2022-09-23T04:00:30;3.95;;;2.30;;
69053;SDS011;56125;52.242;4.756;2022-09-23T04:05:31;3.63;;;2.20;;
69053;SDS011;56125;52.242;4.756;2022-09-23T04:10:32;4.82;;;2.70;;
69053;SDS011;56125;52.242;4.756;2022-09-23T04:15:33;3.23;;;2.33;;
69053;SDS011;56125;52.242;4.756;2022-09-23T04:20:34;3.83;;;2.47;;
69053;SDS011;56125;52.242;4.756;2022-09-23T04:25:47;4.83;;;2.57;;
69053;SDS011;56125;52.242;4.756;2022-09-23T04:30:49;3.15;;;2.65;;
69053;SDS011;56125;52.242;4.756;2022-09-23T04:35:51;2.90;;;2.37;;
69053;SDS011;56125;52.242;4.756;2022-09-23T04:40:52;5.28;;;2.63;;
69053;SDS011;56125;52.242;4.756;2022-09-23T04:46:01;3.53;;;2.20;;
69053;SDS011;56125;52.242;4.756;2022-09-23T04:51:07;3.28;;;2.20;;
69053;SDS011;56125;52.242;4.756;2022-09-23T04:56:13;5.03;;;2.57;;
69053;SDS011;56125;52.242;4.756;2022-09-23T05:01:19;3.65;;;2.42;;
69053;SDS011;56125;52.242;4.756;2022-09-23T05:06:24;3.50;;;2.70;;
69053;SDS011;56125;52.242;4.756;2022-09-23T05:11:25;3.55;;;2.40;;
69053;SDS011;56125;52.242;4.756;2022-09-23T05:16:28;3.00;;;2.60;;
69053;SDS011;56125;52.242;4.756;2022-09-23T05:21:29;2.70;;;2.10;;
69053;SDS011;56125;52.242;4.756;2022-09-23T05:26:30;4.50;;;2.60;;
69053;SDS011;56125;52.242;4.756;2022-09-23T05:31:32;3.22;;;2.63;;
69053;SDS011;56125;52.242;4.756;2022-09-23T05:36:34;4.63;;;2.63;;
69053;SDS011;56125;52.242;4.756;2022-09-23T05:41:35;4.03;;;2.42;;
69053;SDS011;56125;52.242;4.756;2022-09-23T05:46:37;3.97;;;2.70;;
69053;SDS011;56125;52.242;4.756;2022-09-23T05:51:38;6.13;;;3.20;;
69053;SDS011;56125;52.242;4.756;2022-09-23T05:56:39;5.83;;;3.00;;
69053;SDS011;56125;52.242;4.756;2022-09-23T06:01:40;9.73;;;3.28;;
69053;SDS011;56125;52.242;4.756;2022-09-23T06:06:43;6.83;;;2.90;;
69053;SDS011;56125;52.242;4.756;2022-09-23T06:11:44;5.00;;;3.05;;
69053;SDS011;56125;52.242;4.756;2022-09-23T06:16:46;5.83;;;2.83;;
69053;SDS011;56125;52.242;4.756;2022-09-23T06:21:47;6.28;;;3.10;;
69053;SDS011;56125;52.242;4.756;2022-09-23T06:26:48;6.07;;;3.50;;
69053;SDS011;56125;52.242;4.756;2022-09-23T06:31:49;4.93;;;2.83;;
69053;SDS011;56125;52.242;4.756;2022-09-23T06:36:50;6.50;;;3.00;;
69053;SDS011;56125;52.242;4.756;2022-09-23T06:41:53;4.90;;;2.70;;
69053;SDS011;56125;52.242;4.756;2022-09-23T06:46:54;4.23;;;2.70;;
69053;SDS011;56125;52.242;4.756;2022-09-23T06:51:55;5.55;;;3.00;;
69053;SDS011;56125;52.242;4.756;2022-09-23T06:56:56;7.23;;;2.67;;
69053;SDS011;56125;52.242;4.756;2022-09-23T07:01:57;6.85;;;2.92;;
69053;SDS011;56125;52.242;4.756;2022-09-23T07:06:58;4.10;;;2.77;;
69053;SDS011;56125;52.242;4.756;2022-09-23T07:11:59;6.25;;;2.40;;
69053;SDS011;56125;52.242;4.756;2022-09-23T07:17:00;6.13;;;3.10;;
69053;SDS011;56125;52.242;4.756;2022-09-23T07:22:01;4.88;;;2.72;;
69053;SDS011;56125;52.242;4.756;2022-09-23T07:27:02;4.20;;;2.40;;
69053;SDS011;56125;52.242;4.756;2022-09-23T07:32:03;4.47;;;2.90;;
69053;SDS011;56125;52.242;4.756;2022-09-23T07:37:04;7.23;;;2.70;;
69053;SDS011;56125;52.242;4.756;2022-09-23T07:42:05;3.55;;;2.50;;
69053;SDS011;56125;52.242;4.756;2022-09-23T07:47:06;5.20;;;3.30;;
69053;SDS011;56125;52.242;4.756;2022-09-23T07:52:08;4.15;;;2.45;;
69053;SDS011;56125;52.242;4.756;2022-09-23T07:57:09;2.90;;;2.60;;
69053;SDS011;56125;52.242;4.756;2022-09-23T08:02:10;8.68;;;3.13;;
69053;SDS011;56125;52.242;4.756;2022-09-23T08:07:11;5.20;;;2.63;;
69053;SDS011;56125;52.242;4.756;2022-09-23T08:12:14;4.93;;;2.35;;
69053;SDS011;56125;52.242;4.756;2022-09-23T08:17:17;6.80;;;3.03;;
69053;SDS011;56125;52.242;4.756;2022-09-23T08:22:18;3.72;;;2.50;;
69053;SDS011;56125;52.242;4.756;2022-09-23T08:27:20;4.87;;;2.70;;
69053;SDS011;56125;52.242;4.756;2022-09-23T08:32:21;4.88;;;2.60;;
69053;SDS011;56125;52.242;4.756;2022-09-23T08:37:22;3.90;;;2.77;;
69053;SDS011;56125;52.242;4.756;2022-09-23T08:42:29;5.65;;;2.70;;
69053;SDS011;56125;52.242;4.756;2022-09-23T08:53:24;4.65;;;2.88;;
69053;SDS011;56125;52.242;4.756;2022-09-23T09:04:02;3.65;;;2.90;;
69053;SDS011;56125;52.242;4.756;2022-09-23T09:09:26;3.83;;;2.80;;
69053;SDS011;56125;52.242;4.756;2022-09-23T09:14:41;4.65;;;3.20;;
69053;SDS011;56125;52.242;4.756;2022-09-23T09:19:55;7.03;;;3.07;;
69053;SDS011;56125;52.242;4.756;2022-09-23T09:25:04;4.65;;;3.10;;
69053;SDS011;56125;52.242;4.756;2022-09-23T09:30:22;5.73;;;3.07;;
69053;SDS011;56125;52.242;4.756;2022-09-23T09:40:38;4.07;;;2.73;;
69053;SDS011;56125;52.242;4.756;2022-09-23T09:45:49;5.35;;;3.20;;
69053;SDS011;56125;52.242;4.756;2022-09-23T09:51:20;5.03;;;2.77;;
69053;SDS011;56125;52.242;4.756;2022-09-23T09:56:24;3.45;;;2.70;;
69053;SDS011;56125;52.242;4.756;2022-09-23T10:01:31;4.90;;;3.07;;
69053;SDS011;56125;52.242;4.756;2022-09-23T10:06:34;7.25;;;3.00;;
69053;SDS011;56125;52.242;4.756;2022-09-23T10:11:35;6.10;;;2.77;;
69053;SDS011;56125;52.242;4.756;2022-09-23T10:16:37;3.65;;;2.63;;
69053;SDS011;56125;52.242;4.756;2022-09-23T10:21:41;6.53;;;2.83;;
69053;SDS011;56125;52.242;4.756;2022-09-23T10:26:44;3.78;;;2.50;;
69053;SDS011;56125;52.242;4.756;2022-09-23T10:37:37;3.92;;;2.67;;
69053;SDS011;56125;52.242;4.756;2022-09-23T10:48:42;5.20;;;2.90;;
69053;SDS011;56125;52.242;4.756;2022-09-23T10:53:59;4.70;;;2.73;;
69053;SDS011;56125;52.242;4.756;2022-09-23T11:05:44;6.00;;;2.90;;
69053;SDS011;56125;52.242;4.756;2022-09-23T11:15:30;3.93;;;2.60;;
69053;SDS011;56125;52.242;4.756;2022-09-23T11:31:48;3.72;;;2.67;;
69053;SDS011;56125;52.242;4.756;2022-09-23T11:37:07;4.60;;;2.73;;
69053;SDS011;56125;52.242;4.756;2022-09-23T11:42:22;4.00;;;2.72;;
69053;SDS011;56125;52.242;4.756;2022-09-23T11:47:38;4.03;;;2.40;;
69053;SDS011;56125;52.242;4.756;2022-09-23T11:52:46;7.60;;;3.58;;
69053;SDS011;56125;52.242;4.756;2022-09-23T11:58:01;4.27;;;2.47;;
69053;SDS011;56125;52.242;4.756;2022-09-23T12:08:27;3.73;;;2.70;;
69053;SDS011;56125;52.242;4.756;2022-09-23T12:13:43;4.28;;;2.60;;
69053;SDS011;56125;52.242;4.756;2022-09-23T12:18:55;4.13;;;2.60;;
69053;SDS011;56125;52.242;4.756;2022-09-23T12:24:03;4.07;;;2.65;;
69053;SDS011;56125;52.242;4.756;2022-09-23T12:29:32;4.07;;;2.50;;
69053;SDS011;56125;52.242;4.756;2022-09-23T12:34:38;4.45;;;2.45;;
69053;SDS011;56125;52.242;4.756;2022-09-23T12:39:43;3.30;;;2.60;;
69053;SDS011;56125;52.242;4.756;2022-09-23T12:44:46;4.68;;;2.10;;
69053;SDS011;56125;52.242;4.756;2022-09-23T12:49:48;5.00;;;3.10;;
69053;SDS011;56125;52.242;4.756;2022-09-23T12:54:50;4.75;;;2.55;;
69053;SDS011;56125;52.242;4.756;2022-09-23T12:59:56;3.73;;;2.00;;
69053;SDS011;56125;52.242;4.756;2022-09-23T13:05:07;3.30;;;2.50;;
69053;SDS011;56125;52.242;4.756;2022-09-23T13:10:33;4.50;;;2.57;;
69053;SDS011;56125;52.242;4.756;2022-09-23T13:26:46;3.67;;;2.55;;
69053;SDS011;56125;52.242;4.756;2022-09-23T13:31:56;3.70;;;2.10;;
69053;SDS011;56125;52.242;4.756;2022-09-23T13:36:57;3.10;;;2.47;;
69053;SDS011;56125;52.242;4.756;2022-09-23T13:42:24;3.70;;;2.10;;
69053;SDS011;56125;52.242;4.756;2022-09-23T13:47:28;3.28;;;2.00;;
69053;SDS011;56125;52.242;4.756;2022-09-23T13:52:30;3.60;;;2.00;;
69053;SDS011;56125;52.242;4.756;2022-09-23T13:57:33;3.65;;;2.10;;
69053;SDS011;56125;52.242;4.756;2022-09-23T14:02:40;4.43;;;1.87;;
69053;SDS011;56125;52.242;4.756;2022-09-23T14:07:42;4.45;;;2.08;;
69053;SDS011;56125;52.242;4.756;2022-09-23T14:12:44;2.87;;;2.20;;
69053;SDS011;56125;52.242;4.756;2022-09-23T14:17:53;3.28;;;2.10;;
69053;SDS011;56125;52.242;4.756;2022-09-23T14:23:05;2.63;;;2.20;;
69053;SDS011;56125;52.242;4.756;2022-09-23T14:28:15;3.50;;;2.28;;
69053;SDS011;56125;52.242;4.756;2022-09-23T14:33:25;3.13;;;1.80;;
69053;SDS011;56125;52.242;4.756;2022-09-23T14:38:29;3.55;;;2.00;;
69053;SDS011;56125;52.242;4.756;2022-09-23T14:43:50;3.83;;;2.00;;
69053;SDS011;56125;52.242;4.756;2022-09-23T14:49:05;3.20;;;2.00;;
69053;SDS011;56125;52.242;4.756;2022-09-23T14:54:30;3.80;;;2.30;;
69053;SDS011;56125;52.242;4.756;2022-09-23T14:59:35;3.40;;;2.42;;
69053;SDS011;56125;52.242;4.756;2022-09-23T15:04:36;3.23;;;2.10;;
69053;SDS011;56125;52.242;4.756;2022-09-23T15:09:38;2.90;;;2.50;;
69053;SDS011;56125;52.242;4.756;2022-09-23T15:14:42;4.17;;;2.30;;
69053;SDS011;56125;52.242;4.756;2022-09-23T15:19:47;3.72;;;2.45;;
69053;SDS011;56125;52.242;4.756;2022-09-23T15:24:53;3.50;;;2.30;;
69053;SDS011;56125;52.242;4.756;2022-09-23T15:30:16;6.18;;;2.60;;
69053;SDS011;56125;52.242;4.756;2022-09-23T15:35:19;3.60;;;2.30;;
69053;SDS011;56125;52.242;4.756;2022-09-23T15:40:26;4.38;;;2.65;;
69053;SDS011;56125;52.242;4.756;2022-09-23T15:45:40;4.33;;;2.53;;
69053;SDS011;56125;52.242;4.756;2022-09-23T15:50:44;3.95;;;2.70;;
69053;SDS011;56125;52.242;4.756;2022-09-23T15:55:46;4.00;;;2.70;;
69053;SDS011;56125;52.242;4.756;2022-09-23T16:00:52;3.90;;;2.42;;
69053;SDS011;56125;52.242;4.756;2022-09-23T16:05:55;2.67;;;2.23;;
69053;SDS011;56125;52.242;4.756;2022-09-23T16:11:01;4.18;;;2.42;;
69053;SDS011;56125;52.242;4.756;2022-09-23T16:16:02;3.53;;;2.47;;
69053;SDS011;56125;52.242;4.756;2022-09-23T16:21:04;3.42;;;2.42;;
69053;SDS011;56125;52.242;4.756;2022-09-23T16:26:12;4.57;;;2.97;;
69053;SDS011;56125;52.242;4.756;2022-09-23T16:31:24;4.80;;;2.80;;
69053;SDS011;56125;52.242;4.756;2022-09-23T16:36:30;5.73;;;2.50;;
69053;SDS011;56125;52.242;4.756;2022-09-23T16:41:33;3.13;;;2.42;;
69053;SDS011;56125;52.242;4.756;2022-09-23T16:46:34;3.47;;;2.47;;
69053;SDS011;56125;52.242;4.756;2022-09-23T16:51:35;4.05;;;2.20;;
69053;SDS011;56125;52.242;4.756;2022-09-23T16:56:40;2.73;;;2.30;;
69053;SDS011;56125;52.242;4.756;2022-09-23T17:01:44;2.38;;;1.95;;
69053;SDS011;56125;52.242;4.756;2022-09-23T17:07:04;2.47;;;2.10;;
69053;SDS011;56125;52.242;4.756;2022-09-23T17:12:24;2.13;;;1.55;;
69053;SDS011;56125;52.242;4.756;2022-09-23T17:17:28;2.03;;;1.70;;
69053;SDS011;56125;52.242;4.756;2022-09-23T17:22:29;3.28;;;1.80;;
69053;SDS011;56125;52.242;4.756;2022-09-23T17:27:31;2.67;;;1.80;;
69053;SDS011;56125;52.242;4.756;2022-09-23T17:32:32;1.90;;;1.55;;
69053;SDS011;56125;52.242;4.756;2022-09-23T17:37:33;2.10;;;1.77;;
69053;SDS011;56125;52.242;4.756;2022-09-23T17:42:37;2.20;;;1.58;;
69053;SDS011;56125;52.242;4.756;2022-09-23T17:47:40;2.70;;;1.70;;
69053;SDS011;56125;52.242;4.756;2022-09-23T17:52:41;3.03;;;1.80;;
69053;SDS011;56125;52.242;4.756;2022-09-23T17:57:42;1.90;;;1.63;;
69053;SDS011;56125;52.242;4.756;2022-09-23T18:02:43;3.40;;;1.60;;
69053;SDS011;56125;52.242;4.756;2022-09-23T18:07:49;3.40;;;1.70;;
69053;SDS011;56125;52.242;4.756;2022-09-23T18:12:50;4.05;;;2.10;;
69053;SDS011;56125;52.242;4.756;2022-09-23T18:17:52;2.80;;;1.63;;
69053;SDS011;56125;52.242;4.756;2022-09-23T18:22:53;2.35;;;2.05;;
69053;SDS011;56125;52.242;4.756;2022-09-23T18:27:54;2.77;;;2.10;;
69053;SDS011;56125;52.242;4.756;2022-09-23T18:32:55;3.13;;;2.33;;
69053;SDS011;56125;52.242;4.756;2022-09-23T18:37:56;2.70;;;2.10;;
69053;SDS011;56125;52.242;4.756;2022-09-23T18:42:57;2.92;;;2.33;;
69053;SDS011;56125;52.242;4.756;2022-09-23T18:47:58;4.10;;;2.50;;
69053;SDS011;56125;52.242;4.756;2022-09-23T18:53:18;3.22;;;2.75;;
69053;SDS011;56125;52.242;4.756;2022-09-23T18:58:19;4.47;;;2.70;;
69053;SDS011;56125;52.242;4.756;2022-09-23T19:03:20;4.15;;;3.33;;
69053;SDS011;56125;52.242;4.756;2022-09-23T19:08:21;4.67;;;3.10;;
69053;SDS011;56125;52.242;4.756;2022-09-23T19:13:22;4.75;;;3.58;;
69053;SDS011;56125;52.242;4.756;2022-09-23T19:18:23;5.10;;;3.07;;
69053;SDS011;56125;52.242;4.756;2022-09-23T19:23:27;4.57;;;2.88;;
69053;SDS011;56125;52.242;4.756;2022-09-23T19:28:34;4.07;;;2.90;;
69053;SDS011;56125;52.242;4.756;2022-09-23T19:33:36;4.00;;;2.78;;
69053;SDS011;56125;52.242;4.756;2022-09-23T19:38:37;4.13;;;2.90;;
69053;SDS011;56125;52.242;4.756;2022-09-23T19:43:38;4.40;;;2.90;;
69053;SDS011;56125;52.242;4.756;2022-09-23T19:48:39;3.67;;;2.60;;
69053;SDS011;56125;52.242;4.756;2022-09-23T19:53:41;4.25;;;2.63;;
69053;SDS011;56125;52.242;4.756;2022-09-23T19:58:43;4.23;;;2.63;;
69053;SDS011;56125;52.242;4.756;2022-09-23T20:03:46;4.05;;;2.70;;
69053;SDS011;56125;52.242;4.756;2022-09-23T20:08:48;4.20;;;2.87;;
69053;SDS011;56125;52.242;4.756;2022-09-23T20:13:51;4.18;;;2.75;;
69053;SDS011;56125;52.242;4.756;2022-09-23T20:18:58;4.23;;;2.90;;
69053;SDS011;56125;52.242;4.756;2022-09-23T20:24:00;4.30;;;3.08;;
69053;SDS011;56125;52.242;4.756;2022-09-23T20:29:01;5.07;;;2.93;;
69053;SDS011;56125;52.242;4.756;2022-09-23T20:34:03;6.18;;;2.92;;
69053;SDS011;56125;52.242;4.756;2022-09-23T20:39:06;5.23;;;2.90;;
69053;SDS011;56125;52.242;4.756;2022-09-23T20:44:09;3.10;;;2.45;;
69053;SDS011;56125;52.242;4.756;2022-09-23T20:49:11;4.23;;;2.80;;
69053;SDS011;56125;52.242;4.756;2022-09-23T20:54:12;4.35;;;2.70;;
69053;SDS011;56125;52.242;4.756;2022-09-23T20:59:14;5.10;;;3.07;;
69053;SDS011;56125;52.242;4.756;2022-09-23T21:04:16;3.47;;;2.45;;
69053;SDS011;56125;52.242;4.756;2022-09-23T21:09:18;3.53;;;2.67;;
69053;SDS011;56125;52.242;4.756;2022-09-23T21:14:22;3.20;;;2.60;;
69053;SDS011;56125;52.242;4.756;2022-09-23T21:19:23;3.73;;;2.40;;
69053;SDS011;56125;52.242;4.756;2022-09-23T21:24:24;4.07;;;2.83;;
69053;SDS011;56125;52.242;4.756;2022-09-23T21:29:25;5.10;;;2.87;;
69053;SDS011;56125;52.242;4.756;2022-09-23T21:34:27;4.97;;;2.83;;
69053;SDS011;56125;52.242;4.756;2022-09-23T21:39:29;5.33;;;2.60;;
69053;SDS011;56125;52.242;4.756;2022-09-23T21:44:30;4.60;;;2.95;;
69053;SDS011;56125;52.242;4.756;2022-09-23T21:49:31;5.00;;;3.03;;
69053;SDS011;56125;52.242;4.756;2022-09-23T21:54:32;4.40;;;2.90;;
69053;SDS011;56125;52.242;4.756;2022-09-23T21:59:33;8.03;;;3.60;;
69053;SDS011;56125;52.242;4.756;2022-09-23T22:04:34;6.68;;;3.63;;
69053;SDS011;56125;52.242;4.756;2022-09-23T22:09:35;7.13;;;3.87;;
69053;SDS011;56125;52.242;4.756;2022-09-23T22:14:36;6.03;;;4.07;;
69053;SDS011;56125;52.242;4.756;2022-09-23T22:19:42;6.37;;;4.33;;
69053;SDS011;56125;52.242;4.756;2022-09-23T22:24:45;5.50;;;3.70;;
69053;SDS011;56125;52.242;4.756;2022-09-23T22:29:47;7.73;;;4.60;;
69053;SDS011;56125;52.242;4.756;2022-09-23T22:35:07;10.23;;;4.45;;
69053;SDS011;56125;52.242;4.756;2022-09-23T22:40:11;6.57;;;4.40;;
69053;SDS011;56125;52.242;4.756;2022-09-23T22:45:13;7.32;;;4.20;;
69053;SDS011;56125;52.242;4.756;2022-09-23T22:50:14;6.20;;;3.87;;
69053;SDS011;56125;52.242;4.756;2022-09-23T22:55:15;7.60;;;4.13;;
69053;SDS011;56125;52.242;4.756;2022-09-23T23:00:16;6.80;;;3.77;;
69053;SDS011;56125;52.242;4.756;2022-09-23T23:05:17;7.72;;;4.53;;
69053;SDS011;56125;52.242;4.756;2022-09-23T23:10:18;5.80;;;4.10;;
69053;SDS011;56125;52.242;4.756;2022-09-23T23:15:19;6.85;;;4.50;;
69053;SDS011;56125;52.242;4.756;2022-09-23T23:20:20;7.20;;;4.53;;
69053;SDS011;56125;52.242;4.756;2022-09-23T23:25:21;6.88;;;4.13;;
69053;SDS011;56125;52.242;4.756;2022-09-23T23:30:22;6.63;;;4.17;;
69053;SDS011;56125;52.242;4.756;2022-09-23T23:35:24;7.18;;;4.30;;
69053;SDS011;56125;52.242;4.756;2022-09-23T23:40:25;7.90;;;4.43;;
69053;SDS011;56125;52.242;4.756;2022-09-23T23:45:27;7.53;;;4.35;;
69053;SDS011;56125;52.242;4.756;2022-09-23T23:50:29;6.87;;;4.00;;
69053;SDS011;56125;52.242;4.756;2022-09-23T23:55:30;6.28;;;4.07;;
